Burgtor — V2OR7 — position and weather

sailwx.info

Track history (hours):
 
Tides and Currents Weather Stations Pressure Air Temp Water Temp Dewpoint Dewpoint Depression Visibility Wind Speed Wind Dir Waves Ship Positions

Burgtor

Last reported at 2016-Jun-29 10:33 UTC. Time now 2016-Jun-30 08:43 UTC.
Position N 54°40' W 005°50'.

Length 87 m; draft 4.3 m.

Type: Cargo ship. MMSI: 304665000.

Date/timePositionNaut miles runAvg speedWind from/ knotsBaromVisibWave heightAir tempDewpointWater temp
2016-Jun-29 10:33N 54°40' W 005°50'7 6.7
2016-Jun-29 09:33N 54°43' W 005°40'8 7.8
2016-Jun-29 08:34N 54°40' W 005°27'1010.0
2016-Jun-29 07:33N 54°30' W 005°21'8 8.5
2016-Jun-29 06:33N 54°22' W 005°19'8 8.2
2016-Jun-29 05:33N 54°14' W 005°20'255 6.5
2016-Jun-27 14:31N 50°01' W 004°18'22 7.3
2016-Jun-27 11:31N 50°06' W 003°44'6 6.5
2016-Jun-27 10:33N 50°07' W 003°34'7 7.1
2016-Jun-27 09:33N 50°08' W 003°24'8 7.7
2016-Jun-27 08:33N 50°09' W 003°12'9 8.4
2016-Jun-27 07:32N 50°11' W 002°58'106 7.6
2016-Jun-26 17:33N 50°30' W 000°15'9 8.8
2016-Jun-26 16:33N 50°32' W 000°01'8 8.2
2016-Jun-26 15:33N 50°34' E 000°11'50 7.9
2016-Jun-26 09:12N 51°00' E 001°19'7 9.9
2016-Jun-26 08:33N 51°04' E 001°27'8 8.5
2016-Jun-26 07:33N 51°10' E 001°36'7 7.1
2016-Jun-26 06:33N 51°17' E 001°40'6 6.4
2016-Jun-26 05:33N 51°23' E 001°43'6 6.2
2016-Jun-26 04:33N 51°29' E 001°45'8 7.5
2016-Jun-26 03:33N 51°37' E 001°45'8 8.4
2016-Jun-26 02:33N 51°45' E 001°44'9 9.3
2016-Jun-26 01:33N 51°54' E 001°44'1010.4
2016-Jun-26 00:33N 52°05' E 001°46'1010.3
2016-Jun-25 23:33N 52°15' E 001°48'35 8.1
2016-Jun-25 19:10N 52°50' E 001°43'4 6.7
2016-Jun-25 18:33N 52°52' E 001°37'6 5.9
2016-Jun-25 17:34N 52°56' E 001°29'6 5.8
2016-Jun-25 16:33N 52°58' E 001°21'8 6.4
2016-Jun-25 15:22N 53°01' E 001°09'5 6.2
2016-Jun-25 14:32N 53°04' E 001°01'8 7.4
2016-Jun-25 13:30N 53°09' E 000°53'7 7.6
2016-Jun-25 12:33N 53°14' E 000°44'7 7.2
2016-Jun-25 11:33N 53°09' E 000°35'9 9.2
2016-Jun-25 10:33N 53°01' E 000°27'9 8.7
2016-Jun-25 09:33N 52°53' E 000°21'6 6.2
2016-Jun-25 08:33N 52°47' E 000°22'2 1.6
2016-Jun-25 07:31N 52°46' E 000°23'0 0.0
2016-Jun-25 06:28N 52°46' E 000°23'0 0.0
2016-Jun-25 05:32N 52°46' E 000°23'0 0.0
2016-Jun-25 04:31N 52°46' E 000°23'0 0.0
2016-Jun-25 03:31N 52°46' E 000°23'0 0.0
2016-Jun-25 02:31N 52°46' E 000°23'0 0.0
2016-Jun-25 01:31N 52°46' E 000°23'0 0.0
2016-Jun-25 00:29N 52°46' E 000°23'0 0.0
2016-Jun-24 23:28N 52°46' E 000°23'0 0.0
2016-Jun-24 22:25N 52°46' E 000°23'0 0.0
2016-Jun-24 21:28N 52°46' E 000°23'0 0.0
2016-Jun-24 20:28N 52°46' E 000°23'0 0.0
2016-Jun-24 19:31N 52°46' E 000°23'0 0.0
2016-Jun-24 18:13N 52°46' E 000°23'0 0.0
2016-Jun-24 17:28N 52°46' E 000°23'0 0.0
2016-Jun-24 16:31N 52°46' E 000°23'0 0.0
2016-Jun-24 15:32N 52°46' E 000°23'0 0.0
2016-Jun-24 14:28N 52°46' E 000°23'0 0.0
2016-Jun-24 13:31N 52°46' E 000°23'0 0.0
2016-Jun-24 12:31N 52°46' E 000°23'0 0.0
2016-Jun-24 11:28N 52°46' E 000°23'0 0.0
2016-Jun-24 10:31N 52°46' E 000°23'0 0.0
2016-Jun-24 09:28N 52°46' E 000°23'0 0.0
2016-Jun-24 08:28N 52°46' E 000°23'0 0.0
2016-Jun-24 07:34N 52°46' E 000°23'0 0.0
2016-Jun-24 04:31N 52°46' E 000°23'0 0.0
2016-Jun-24 03:33N 52°46' E 000°23'0 0.0
2016-Jun-24 02:33N 52°46' E 000°23'0 0.0
2016-Jun-24 01:31N 52°46' E 000°23'0 0.0
2016-Jun-24 00:33N 52°46' E 000°23'0 0.0
2016-Jun-23 23:33N 52°46' E 000°23'0 0.0
2016-Jun-23 22:33N 52°46' E 000°23'0 0.0
2016-Jun-23 21:33N 52°46' E 000°23'0 0.0
2016-Jun-23 20:33N 52°46' E 000°23'0 0.0
2016-Jun-23 19:30N 52°46' E 000°23'0 0.0
2016-Jun-23 18:33N 52°46' E 000°23'0 0.0
2016-Jun-23 17:33N 52°46' E 000°23'0 0.0
2016-Jun-23 16:33N 52°46' E 000°23'0 0.0
2016-Jun-23 15:33N 52°46' E 000°23'0 0.0
2016-Jun-23 14:24N 52°46' E 000°23'0 0.0
2016-Jun-23 13:33N 52°46' E 000°23'0 0.0
2016-Jun-23 12:33N 52°46' E 000°23'0 0.0
2016-Jun-23 11:30N 52°46' E 000°23'0 0.0
2016-Jun-23 10:30N 52°46' E 000°23'0 0.0
2016-Jun-23 09:33N 52°46' E 000°23'0 0.0
2016-Jun-23 08:27N 52°46' E 000°23'0 0.0
2016-Jun-23 07:33N 52°46' E 000°23'13 6.5
2016-Jun-23 05:33N 52°59' E 000°24'7 6.8
2016-Jun-23 04:33N 53°04' E 000°29'7 7.3
2016-Jun-23 03:32N 53°10' E 000°37'6 4.8
2016-Jun-23 02:12N 53°13' E 000°46'5 7.2
2016-Jun-23 01:31N 53°10' E 000°52'7 6.9
2016-Jun-23 00:33N 53°05' E 001°00'9 7.2
2016-Jun-22 23:14N 53°01' E 001°14'5 7.4
2016-Jun-22 22:33N 52°59' E 001°22'7 7.4
2016-Jun-22 21:34N 52°54' E 001°31'7 7.3
2016-Jun-22 20:33N 52°48' E 001°39'34 0.8
2016-Jun-21 00:33N 52°15' E 001°51'7 7.4
2016-Jun-20 23:33N 52°08' E 001°51'7 7.3
2016-Jun-20 22:33N 52°00' E 001°50'7 7.2
2016-Jun-20 21:33N 51°53' E 001°48'7 6.8
2016-Jun-20 20:33N 51°46' E 001°48'7 7.0
2016-Jun-20 19:33N 51°39' E 001°48'8 7.5
2016-Jun-20 18:33N 51°32' E 001°47'7 6.6
2016-Jun-20 17:33N 51°25' E 001°46'7 7.3
2016-Jun-20 16:33N 51°18' E 001°43'7 7.2
2016-Jun-20 15:33N 51°12' E 001°38'6 6.0
2016-Jun-20 14:33N 51°06' E 001°40'9 8.5
2016-Jun-20 13:33N 50°59' E 001°30'60 8.5
2016-Jun-20 06:32N 50°24' E 000°15'9 8.7
2016-Jun-20 05:33N 50°21' E 000°02'  
Track history (hours):
 
Tides and Currents Weather Stations Pressure Air Temp Water Temp Dewpoint Dewpoint Depression Visibility Wind Speed Wind Dir Waves Ship Positions

Burgtor

Last reported at 2016-Jun-29 10:33 UTC. Time now 2016-Jun-30 08:43 UTC.
Position N 54°40' W 005°50'.

Length 87 m; draft 4.3 m.

Type: Cargo ship. MMSI: 304665000.

Date/timePositionNaut miles runAvg speedWind from/ knotsBaromVisibWave heightAir tempDewpointWater temp
2016-Jun-29 10:33N 54°40' W 005°50'7 6.7
2016-Jun-29 09:33N 54°43' W 005°40'8 7.8
2016-Jun-29 08:34N 54°40' W 005°27'1010.0
2016-Jun-29 07:33N 54°30' W 005°21'8 8.5
2016-Jun-29 06:33N 54°22' W 005°19'8 8.2
2016-Jun-29 05:33N 54°14' W 005°20'255 6.5
2016-Jun-27 14:31N 50°01' W 004°18'22 7.3
2016-Jun-27 11:31N 50°06' W 003°44'6 6.5
2016-Jun-27 10:33N 50°07' W 003°34'7 7.1
2016-Jun-27 09:33N 50°08' W 003°24'8 7.7
2016-Jun-27 08:33N 50°09' W 003°12'9 8.4
2016-Jun-27 07:32N 50°11' W 002°58'106 7.6
2016-Jun-26 17:33N 50°30' W 000°15'9 8.8
2016-Jun-26 16:33N 50°32' W 000°01'8 8.2
2016-Jun-26 15:33N 50°34' E 000°11'50 7.9
2016-Jun-26 09:12N 51°00' E 001°19'7 9.9
2016-Jun-26 08:33N 51°04' E 001°27'8 8.5
2016-Jun-26 07:33N 51°10' E 001°36'7 7.1
2016-Jun-26 06:33N 51°17' E 001°40'6 6.4
2016-Jun-26 05:33N 51°23' E 001°43'6 6.2
2016-Jun-26 04:33N 51°29' E 001°45'8 7.5
2016-Jun-26 03:33N 51°37' E 001°45'8 8.4
2016-Jun-26 02:33N 51°45' E 001°44'9 9.3
2016-Jun-26 01:33N 51°54' E 001°44'1010.4
2016-Jun-26 00:33N 52°05' E 001°46'1010.3
2016-Jun-25 23:33N 52°15' E 001°48'35 8.1
2016-Jun-25 19:10N 52°50' E 001°43'4 6.7
2016-Jun-25 18:33N 52°52' E 001°37'6 5.9
2016-Jun-25 17:34N 52°56' E 001°29'6 5.8
2016-Jun-25 16:33N 52°58' E 001°21'8 6.4
2016-Jun-25 15:22N 53°01' E 001°09'5 6.2
2016-Jun-25 14:32N 53°04' E 001°01'8 7.4
2016-Jun-25 13:30N 53°09' E 000°53'7 7.6
2016-Jun-25 12:33N 53°14' E 000°44'7 7.2
2016-Jun-25 11:33N 53°09' E 000°35'9 9.2
2016-Jun-25 10:33N 53°01' E 000°27'9 8.7
2016-Jun-25 09:33N 52°53' E 000°21'6 6.2
2016-Jun-25 08:33N 52°47' E 000°22'2 1.6
2016-Jun-25 07:31N 52°46' E 000°23'0 0.0
2016-Jun-25 06:28N 52°46' E 000°23'0 0.0
2016-Jun-25 05:32N 52°46' E 000°23'0 0.0
2016-Jun-25 04:31N 52°46' E 000°23'0 0.0
2016-Jun-25 03:31N 52°46' E 000°23'0 0.0
2016-Jun-25 02:31N 52°46' E 000°23'0 0.0
2016-Jun-25 01:31N 52°46' E 000°23'0 0.0
2016-Jun-25 00:29N 52°46' E 000°23'0 0.0
2016-Jun-24 23:28N 52°46' E 000°23'0 0.0
2016-Jun-24 22:25N 52°46' E 000°23'0 0.0
2016-Jun-24 21:28N 52°46' E 000°23'0 0.0
2016-Jun-24 20:28N 52°46' E 000°23'0 0.0
2016-Jun-24 19:31N 52°46' E 000°23'0 0.0
2016-Jun-24 18:13N 52°46' E 000°23'0 0.0
2016-Jun-24 17:28N 52°46' E 000°23'0 0.0
2016-Jun-24 16:31N 52°46' E 000°23'0 0.0
2016-Jun-24 15:32N 52°46' E 000°23'0 0.0
2016-Jun-24 14:28N 52°46' E 000°23'0 0.0
2016-Jun-24 13:31N 52°46' E 000°23'0 0.0
2016-Jun-24 12:31N 52°46' E 000°23'0 0.0
2016-Jun-24 11:28N 52°46' E 000°23'0 0.0
2016-Jun-24 10:31N 52°46' E 000°23'0 0.0
2016-Jun-24 09:28N 52°46' E 000°23'0 0.0
2016-Jun-24 08:28N 52°46' E 000°23'0 0.0
2016-Jun-24 07:34N 52°46' E 000°23'0 0.0
2016-Jun-24 04:31N 52°46' E 000°23'0 0.0
2016-Jun-24 03:33N 52°46' E 000°23'0 0.0
2016-Jun-24 02:33N 52°46' E 000°23'0 0.0
2016-Jun-24 01:31N 52°46' E 000°23'0 0.0
2016-Jun-24 00:33N 52°46' E 000°23'0 0.0
2016-Jun-23 23:33N 52°46' E 000°23'0 0.0
2016-Jun-23 22:33N 52°46' E 000°23'0 0.0
2016-Jun-23 21:33N 52°46' E 000°23'0 0.0
2016-Jun-23 20:33N 52°46' E 000°23'0 0.0
2016-Jun-23 19:30N 52°46' E 000°23'0 0.0
2016-Jun-23 18:33N 52°46' E 000°23'0 0.0
2016-Jun-23 17:33N 52°46' E 000°23'0 0.0
2016-Jun-23 16:33N 52°46' E 000°23'0 0.0
2016-Jun-23 15:33N 52°46' E 000°23'0 0.0
2016-Jun-23 14:24N 52°46' E 000°23'0 0.0
2016-Jun-23 13:33N 52°46' E 000°23'0 0.0
2016-Jun-23 12:33N 52°46' E 000°23'0 0.0
2016-Jun-23 11:30N 52°46' E 000°23'0 0.0
2016-Jun-23 10:30N 52°46' E 000°23'0 0.0
2016-Jun-23 09:33N 52°46' E 000°23'0 0.0
2016-Jun-23 08:27N 52°46' E 000°23'0 0.0
2016-Jun-23 07:33N 52°46' E 000°23'13 6.5
2016-Jun-23 05:33N 52°59' E 000°24'7 6.8
2016-Jun-23 04:33N 53°04' E 000°29'7 7.3
2016-Jun-23 03:32N 53°10' E 000°37'6 4.8
2016-Jun-23 02:12N 53°13' E 000°46'5 7.2
2016-Jun-23 01:31N 53°10' E 000°52'7 6.9
2016-Jun-23 00:33N 53°05' E 001°00'9 7.2
2016-Jun-22 23:14N 53°01' E 001°14'5 7.4
2016-Jun-22 22:33N 52°59' E 001°22'7 7.4
2016-Jun-22 21:34N 52°54' E 001°31'7 7.3
2016-Jun-22 20:33N 52°48' E 001°39'34 0.8
2016-Jun-21 00:33N 52°15' E 001°51'7 7.4
2016-Jun-20 23:33N 52°08' E 001°51'7 7.3
2016-Jun-20 22:33N 52°00' E 001°50'7 7.2
2016-Jun-20 21:33N 51°53' E 001°48'7 6.8
2016-Jun-20 20:33N 51°46' E 001°48'7 7.0
2016-Jun-20 19:33N 51°39' E 001°48'8 7.5
2016-Jun-20 18:33N 51°32' E 001°47'7 6.6
2016-Jun-20 17:33N 51°25' E 001°46'7 7.3
2016-Jun-20 16:33N 51°18' E 001°43'7 7.2
2016-Jun-20 15:33N 51°12' E 001°38'6 6.0
2016-Jun-20 14:33N 51°06' E 001°40'9 8.5
2016-Jun-20 13:33N 50°59' E 001°30'60 8.5
2016-Jun-20 06:32N 50°24' E 000°15'9 8.7
2016-Jun-20 05:33N 50°21' E 000°02'  

Dump ship's entire track history